sensor_id;sensor_type;location;lat;lon;timestamp;pressure;altitude;pressure_sealevel;temperature;humidity
69784;BME280;57054;51.978;4.498;2022-10-22T00:00:48;100793.00;;;14.31;98.90
69784;BME280;57054;51.978;4.498;2022-10-22T00:03:13;100794.78;;;14.31;98.99
69784;BME280;57054;51.978;4.498;2022-10-22T00:05:38;100790.47;;;14.30;98.73
69784;BME280;57054;51.978;4.498;2022-10-22T00:08:04;100789.59;;;14.29;98.61
69784;BME280;57054;51.978;4.498;2022-10-22T00:10:29;100790.56;;;14.28;98.72
69784;BME280;57054;51.978;4.498;2022-10-22T00:12:55;100787.03;;;14.28;98.92
69784;BME280;57054;51.978;4.498;2022-10-22T00:15:20;100791.47;;;14.27;99.05
69784;BME280;57054;51.978;4.498;2022-10-22T00:17:45;100797.69;;;14.26;98.89
69784;BME280;57054;51.978;4.498;2022-10-22T00:20:13;100792.44;;;14.26;98.94
69784;BME280;57054;51.978;4.498;2022-10-22T00:22:38;100799.47;;;14.26;98.51
69784;BME280;57054;51.978;4.498;2022-10-22T00:25:04;100805.69;;;14.25;98.70
69784;BME280;57054;51.978;4.498;2022-10-22T00:27:29;100803.03;;;14.25;98.98
69784;BME280;57054;51.978;4.498;2022-10-22T00:29:54;100807.44;;;14.24;98.94
69784;BME280;57054;51.978;4.498;2022-10-22T00:32:19;100809.25;;;14.24;98.88
69784;BME280;57054;51.978;4.498;2022-10-22T00:34:45;100818.09;;;14.23;98.82
69784;BME280;57054;51.978;4.498;2022-10-22T00:37:10;100815.47;;;14.23;99.04
69784;BME280;57054;51.978;4.498;2022-10-22T00:39:35;100813.75;;;14.21;99.00
69784;BME280;57054;51.978;4.498;2022-10-22T00:42:00;100816.38;;;14.21;99.12
69784;BME280;57054;51.978;4.498;2022-10-22T00:47:09;100816.38;;;14.21;98.72
69784;BME280;57054;51.978;4.498;2022-10-22T00:49:35;100819.94;;;14.20;98.94
69784;BME280;57054;51.978;4.498;2022-10-22T00:52:00;100822.56;;;14.20;99.14
69784;BME280;57054;51.978;4.498;2022-10-22T00:54:25;100816.47;;;14.20;98.87
69784;BME280;57054;51.978;4.498;2022-10-22T00:56:51;100824.38;;;14.20;99.00
69784;BME280;57054;51.978;4.498;2022-10-22T00:59:16;100825.31;;;14.19;99.08
69784;BME280;57054;51.978;4.498;2022-10-22T01:01:42;100817.41;;;14.19;98.83
69784;BME280;57054;51.978;4.498;2022-10-22T01:04:09;100820.03;;;14.19;99.07
69784;BME280;57054;51.978;4.498;2022-10-22T01:06:34;100826.16;;;14.19;99.24
69784;BME280;57054;51.978;4.498;2022-10-22T01:09:08;100818.34;;;14.18;99.09
69784;BME280;57054;51.978;4.498;2022-10-22T01:11:43;100825.31;;;14.19;98.95
69784;BME280;57054;51.978;4.498;2022-10-22T01:14:21;100829.72;;;14.18;99.13
69784;BME280;57054;51.978;4.498;2022-10-22T01:17:06;100836.78;;;14.18;99.21
69784;BME280;57054;51.978;4.498;2022-10-22T01:22:08;100840.31;;;14.17;98.82
69784;BME280;57054;51.978;4.498;2022-10-22T01:24:55;100835.94;;;14.17;98.82
69784;BME280;57054;51.978;4.498;2022-10-22T01:27:33;100836.84;;;14.16;98.86
69784;BME280;57054;51.978;4.498;2022-10-22T01:30:04;100840.31;;;14.17;98.99
69784;BME280;57054;51.978;4.498;2022-10-22T01:32:31;100831.59;;;14.16;99.08
69784;BME280;57054;51.978;4.498;2022-10-22T01:34:59;100837.81;;;14.15;98.76
69784;BME280;57054;51.978;4.498;2022-10-22T01:37:25;100838.72;;;14.14;98.88
69784;BME280;57054;51.978;4.498;2022-10-22T01:39:52;100836.94;;;14.15;98.91
69784;BME280;57054;51.978;4.498;2022-10-22T01:42:18;100834.28;;;14.15;98.91
69784;BME280;57054;51.978;4.498;2022-10-22T01:44:43;100834.28;;;14.15;98.85
69784;BME280;57054;51.978;4.498;2022-10-22T01:49:40;100829.97;;;14.14;99.04
69784;BME280;57054;51.978;4.498;2022-10-22T01:57:14;100817.75;;;14.13;98.60
69784;BME280;57054;51.978;4.498;2022-10-22T02:07:00;100825.72;;;14.11;98.74
69784;BME280;57054;51.978;4.498;2022-10-22T02:09:28;100826.59;;;14.12;98.79
69784;BME280;57054;51.978;4.498;2022-10-22T02:11:55;100823.97;;;14.12;98.59
69784;BME280;57054;51.978;4.498;2022-10-22T02:14:21;100825.81;;;14.10;98.69
69784;BME280;57054;51.978;4.498;2022-10-22T02:16:47;100826.66;;;14.10;98.64
69784;BME280;57054;51.978;4.498;2022-10-22T02:22:10;100827.69;;;14.08;98.54
69784;BME280;57054;51.978;4.498;2022-10-22T02:24:36;100835.56;;;14.08;98.36
69784;BME280;57054;51.978;4.498;2022-10-22T02:29:33;100826.00;;;14.07;98.38
69784;BME280;57054;51.978;4.498;2022-10-22T02:32:00;100844.44;;;14.07;98.42
69784;BME280;57054;51.978;4.498;2022-10-22T02:34:29;100840.06;;;14.06;98.26
69784;BME280;57054;51.978;4.498;2022-10-22T02:36:54;100827.78;;;14.06;98.47
69784;BME280;57054;51.978;4.498;2022-10-22T02:39:21;100831.34;;;14.05;98.41
69784;BME280;57054;51.978;4.498;2022-10-22T02:41:46;100827.88;;;14.05;98.53
69784;BME280;57054;51.978;4.498;2022-10-22T02:44:12;100828.78;;;14.04;98.13
69784;BME280;57054;51.978;4.498;2022-10-22T02:46:37;100823.53;;;14.04;98.22
69784;BME280;57054;51.978;4.498;2022-10-22T02:49:02;100823.53;;;14.04;98.33
69784;BME280;57054;51.978;4.498;2022-10-22T02:51:28;100838.47;;;14.03;98.32
69784;BME280;57054;51.978;4.498;2022-10-22T02:53:53;100835.00;;;14.02;98.25
69784;BME280;57054;51.978;4.498;2022-10-22T02:56:18;100833.28;;;14.01;98.47
69784;BME280;57054;51.978;4.498;2022-10-22T02:58:43;100833.28;;;14.01;98.44
69784;BME280;57054;51.978;4.498;2022-10-22T03:01:09;100830.75;;;14.00;98.12
69784;BME280;57054;51.978;4.498;2022-10-22T03:03:34;100842.13;;;14.00;98.15
69784;BME280;57054;51.978;4.498;2022-10-22T03:05:59;100836.84;;;14.00;98.29
69784;BME280;57054;51.978;4.498;2022-10-22T03:08:24;100837.78;;;13.99;98.06
69784;BME280;57054;51.978;4.498;2022-10-22T03:10:50;100833.44;;;13.98;98.26
69784;BME280;57054;51.978;4.498;2022-10-22T03:13:15;100835.25;;;13.98;98.24
69784;BME280;57054;51.978;4.498;2022-10-22T03:15:40;100842.31;;;13.97;98.59
69784;BME280;57054;51.978;4.498;2022-10-22T03:18:05;100837.03;;;13.97;98.16
69784;BME280;57054;51.978;4.498;2022-10-22T03:20:31;100839.66;;;13.97;98.50
69784;BME280;57054;51.978;4.498;2022-10-22T03:22:56;100838.78;;;13.97;98.44
69784;BME280;57054;51.978;4.498;2022-10-22T03:25:22;100838.78;;;13.97;98.25
69784;BME280;57054;51.978;4.498;2022-10-22T03:27:48;100840.59;;;13.96;98.38
69784;BME280;57054;51.978;4.498;2022-10-22T03:30:14;100846.69;;;13.97;98.30
69784;BME280;57054;51.978;4.498;2022-10-22T03:32:40;100843.22;;;13.96;98.12
69784;BME280;57054;51.978;4.498;2022-10-22T03:35:05;100843.31;;;13.95;97.98
69784;BME280;57054;51.978;4.498;2022-10-22T03:37:31;100846.81;;;13.95;97.98
69784;BME280;57054;51.978;4.498;2022-10-22T03:39:57;100846.81;;;13.95;98.18
69784;BME280;57054;51.978;4.498;2022-10-22T03:42:22;100847.72;;;13.94;98.21
69784;BME280;57054;51.978;4.498;2022-10-22T03:44:48;100848.56;;;13.95;98.21
69784;BME280;57054;51.978;4.498;2022-10-22T03:47:13;100856.47;;;13.95;97.99
69784;BME280;57054;51.978;4.498;2022-10-22T03:49:38;100848.56;;;13.95;97.95
69784;BME280;57054;51.978;4.498;2022-10-22T03:52:07;100852.16;;;13.94;98.33
69784;BME280;57054;51.978;4.498;2022-10-22T03:54:34;100852.16;;;13.94;98.31
69784;BME280;57054;51.978;4.498;2022-10-22T03:56:59;100862.69;;;13.94;98.32
69784;BME280;57054;51.978;4.498;2022-10-22T03:59:24;100860.03;;;13.94;98.21
69784;BME280;57054;51.978;4.498;2022-10-22T04:01:50;100852.16;;;13.94;98.29
69784;BME280;57054;51.978;4.498;2022-10-22T04:04:15;100857.50;;;13.92;98.28
69784;BME280;57054;51.978;4.498;2022-10-22T04:06:40;100864.56;;;13.92;98.30
69784;BME280;57054;51.978;4.498;2022-10-22T04:09:05;100863.59;;;13.93;98.17
69784;BME280;57054;51.978;4.498;2022-10-22T04:11:31;100857.50;;;13.92;98.27
69784;BME280;57054;51.978;4.498;2022-10-22T04:13:56;100861.03;;;13.91;98.34
69784;BME280;57054;51.978;4.498;2022-10-22T04:16:21;100861.91;;;13.92;98.18
69784;BME280;57054;51.978;4.498;2022-10-22T04:18:47;100863.69;;;13.91;98.19
69784;BME280;57054;51.978;4.498;2022-10-22T04:21:15;100865.47;;;13.91;98.19
69784;BME280;57054;51.978;4.498;2022-10-22T04:23:44;100871.66;;;13.90;98.18
69784;BME280;57054;51.978;4.498;2022-10-22T04:26:10;100868.09;;;13.91;98.33
69784;BME280;57054;51.978;4.498;2022-10-22T04:28:35;100875.16;;;13.90;98.21
69784;BME280;57054;51.978;4.498;2022-10-22T04:31:05;100877.78;;;13.90;98.23
69784;BME280;57054;51.978;4.498;2022-10-22T04:33:31;100877.78;;;13.90;98.24
69784;BME280;57054;51.978;4.498;2022-10-22T04:35:56;100878.72;;;13.89;98.21
69784;BME280;57054;51.978;4.498;2022-10-22T04:38:21;100877.78;;;13.90;98.24
69784;BME280;57054;51.978;4.498;2022-10-22T04:40:47;100883.06;;;13.90;98.15
69784;BME280;57054;51.978;4.498;2022-10-22T04:43:12;100885.75;;;13.89;98.35
69784;BME280;57054;51.978;4.498;2022-10-22T04:45:37;100885.75;;;13.89;97.98
69784;BME280;57054;51.978;4.498;2022-10-22T04:48:02;100886.59;;;13.89;97.96
69784;BME280;57054;51.978;4.498;2022-10-22T04:50:28;100890.19;;;13.88;98.03
69784;BME280;57054;51.978;4.498;2022-10-22T04:52:53;100893.75;;;13.87;98.08
69784;BME280;57054;51.978;4.498;2022-10-22T04:55:19;100893.75;;;13.87;98.06
69784;BME280;57054;51.978;4.498;2022-10-22T04:57:44;100891.94;;;13.88;98.10
69784;BME280;57054;51.978;4.498;2022-10-22T05:00:10;100899.84;;;13.88;97.96
69784;BME280;57054;51.978;4.498;2022-10-22T05:02:35;100898.16;;;13.87;98.12
69784;BME280;57054;51.978;4.498;2022-10-22T05:05:01;100903.44;;;13.87;98.17
69784;BME280;57054;51.978;4.498;2022-10-22T05:07:26;100903.44;;;13.87;98.23
69784;BME280;57054;51.978;4.498;2022-10-22T05:09:52;100900.88;;;13.85;98.17
69784;BME280;57054;51.978;4.498;2022-10-22T05:12:17;100908.78;;;13.85;97.98
69784;BME280;57054;51.978;4.498;2022-10-22T05:14:42;100899.16;;;13.84;97.97
69784;BME280;57054;51.978;4.498;2022-10-22T05:17:08;100907.94;;;13.85;97.99
69784;BME280;57054;51.978;4.498;2022-10-22T05:19:33;100907.06;;;13.84;97.91
69784;BME280;57054;51.978;4.498;2022-10-22T05:21:59;100907.16;;;13.82;97.91
69784;BME280;57054;51.978;4.498;2022-10-22T05:24:25;100910.63;;;13.83;97.87
69784;BME280;57054;51.978;4.498;2022-10-22T05:26:54;100906.28;;;13.82;97.80
69784;BME280;57054;51.978;4.498;2022-10-22T05:29:20;100912.44;;;13.82;97.81
69784;BME280;57054;51.978;4.498;2022-10-22T05:31:45;100908.94;;;13.82;97.96
69784;BME280;57054;51.978;4.498;2022-10-22T05:34:11;100912.44;;;13.82;97.78
69784;BME280;57054;51.978;4.498;2022-10-22T05:36:36;100916.91;;;13.80;97.90
69784;BME280;57054;51.978;4.498;2022-10-22T05:39:02;100902.91;;;13.80;98.06
69784;BME280;57054;51.978;4.498;2022-10-22T05:41:27;100909.13;;;13.79;98.07
69784;BME280;57054;51.978;4.498;2022-10-22T05:43:54;100919.63;;;13.79;98.02
69784;BME280;57054;51.978;4.498;2022-10-22T05:46:20;100916.13;;;13.78;98.20
69784;BME280;57054;51.978;4.498;2022-10-22T05:48:49;100923.19;;;13.78;98.28
69784;BME280;57054;51.978;4.498;2022-10-22T05:51:15;100927.63;;;13.77;98.29
69784;BME280;57054;51.978;4.498;2022-10-22T05:53:41;100926.75;;;13.77;98.13
69784;BME280;57054;51.978;4.498;2022-10-22T05:56:15;100929.38;;;13.77;97.86
69784;BME280;57054;51.978;4.498;2022-10-22T05:58:41;100949.50;;;13.78;98.21
69784;BME280;57054;51.978;4.498;2022-10-22T06:01:08;100939.91;;;13.77;97.95
69784;BME280;57054;51.978;4.498;2022-10-22T06:03:35;100950.44;;;13.77;98.20
69784;BME280;57054;51.978;4.498;2022-10-22T06:06:01;100946.13;;;13.76;97.96
69784;BME280;57054;51.978;4.498;2022-10-22T06:08:26;100953.16;;;13.75;97.97
69784;BME280;57054;51.978;4.498;2022-10-22T06:10:52;100947.91;;;13.75;98.13
69784;BME280;57054;51.978;4.498;2022-10-22T06:13:17;100956.63;;;13.76;98.29
69784;BME280;57054;51.978;4.498;2022-10-22T06:15:43;100964.53;;;13.76;97.87
69784;BME280;57054;51.978;4.498;2022-10-22T06:18:08;100963.69;;;13.75;98.22
69784;BME280;57054;51.978;4.498;2022-10-22T06:20:33;100966.31;;;13.75;98.29
69784;BME280;57054;51.978;4.498;2022-10-22T06:22:58;100966.31;;;13.75;98.21
69784;BME280;57054;51.978;4.498;2022-10-22T06:25:24;100968.09;;;13.75;98.15
69784;BME280;57054;51.978;4.498;2022-10-22T06:27:49;100969.81;;;13.76;98.30
69784;BME280;57054;51.978;4.498;2022-10-22T06:30:15;100971.66;;;13.74;98.19
69784;BME280;57054;51.978;4.498;2022-10-22T06:32:41;100969.88;;;13.74;98.40
69784;BME280;57054;51.978;4.498;2022-10-22T06:35:06;100982.13;;;13.75;98.45
69784;BME280;57054;51.978;4.498;2022-10-22T06:37:31;100982.97;;;13.76;98.32
69784;BME280;57054;51.978;4.498;2022-10-22T06:39:56;100983.88;;;13.75;98.51
69784;BME280;57054;51.978;4.498;2022-10-22T06:42:22;100980.41;;;13.74;98.27
69784;BME280;57054;51.978;4.498;2022-10-22T06:44:47;100992.66;;;13.75;98.20
69784;BME280;57054;51.978;4.498;2022-10-22T06:47:12;100988.28;;;13.74;98.16
69784;BME280;57054;51.978;4.498;2022-10-22T06:49:37;100989.13;;;13.75;98.28
69784;BME280;57054;51.978;4.498;2022-10-22T06:52:03;100998.81;;;13.74;98.49
69784;BME280;57054;51.978;4.498;2022-10-22T06:54:28;101005.81;;;13.75;98.54
69784;BME280;57054;51.978;4.498;2022-10-22T06:56:53;101004.00;;;13.76;98.17
69784;BME280;57054;51.978;4.498;2022-10-22T06:59:19;101004.84;;;13.76;98.45
69784;BME280;57054;51.978;4.498;2022-10-22T07:01:44;101006.66;;;13.76;98.31
69784;BME280;57054;51.978;4.498;2022-10-22T07:04:09;101023.28;;;13.76;98.44
69784;BME280;57054;51.978;4.498;2022-10-22T07:06:35;101024.13;;;13.77;98.37
69784;BME280;57054;51.978;4.498;2022-10-22T07:09:00;101022.44;;;13.76;98.27
69784;BME280;57054;51.978;4.498;2022-10-22T07:11:27;101026.75;;;13.77;98.70
69784;BME280;57054;51.978;4.498;2022-10-22T07:13:53;101028.47;;;13.78;98.63
69784;BME280;57054;51.978;4.498;2022-10-22T07:16:18;101038.16;;;13.77;98.87
69784;BME280;57054;51.978;4.498;2022-10-22T07:18:44;101045.97;;;13.79;99.08
69784;BME280;57054;51.978;4.498;2022-10-22T07:21:10;101039.84;;;13.78;99.00
69784;BME280;57054;51.978;4.498;2022-10-22T07:23:35;101046.06;;;13.77;98.79
69784;BME280;57054;51.978;4.498;2022-10-22T07:26:01;101053.00;;;13.78;99.26
69784;BME280;57054;51.978;4.498;2022-10-22T07:28:27;101054.78;;;13.78;99.12
69784;BME280;57054;51.978;4.498;2022-10-22T07:30:52;101053.00;;;13.78;98.70
69784;BME280;57054;51.978;4.498;2022-10-22T07:33:18;101066.16;;;13.78;98.77
69784;BME280;57054;51.978;4.498;2022-10-22T07:35:43;101074.06;;;13.78;98.68
69784;BME280;57054;51.978;4.498;2022-10-22T07:38:08;101076.69;;;13.78;98.87
69784;BME280;57054;51.978;4.498;2022-10-22T07:40:34;101077.56;;;13.79;99.23
69784;BME280;57054;51.978;4.498;2022-10-22T07:43:00;101085.47;;;13.79;99.16
69784;BME280;57054;51.978;4.498;2022-10-22T07:45:25;101090.72;;;13.79;98.98
69784;BME280;57054;51.978;4.498;2022-10-22T07:47:50;101096.78;;;13.81;98.89
69784;BME280;57054;51.978;4.498;2022-10-22T07:50:16;101098.47;;;13.82;98.85
69784;BME280;57054;51.978;4.498;2022-10-22T07:52:41;101101.09;;;13.82;98.54
69784;BME280;57054;51.978;4.498;2022-10-22T07:55:06;101098.38;;;13.83;98.48
69784;BME280;57054;51.978;4.498;2022-10-22T07:57:32;101100.09;;;13.85;98.69
69784;BME280;57054;51.978;4.498;2022-10-22T07:59:57;101113.25;;;13.85;98.79
69784;BME280;57054;51.978;4.498;2022-10-22T08:02:23;101117.59;;;13.86;99.01
69784;BME280;57054;51.978;4.498;2022-10-22T08:04:49;101113.19;;;13.86;98.91
69784;BME280;57054;51.978;4.498;2022-10-22T08:07:14;101120.13;;;13.87;99.14
69784;BME280;57054;51.978;4.498;2022-10-22T08:09:39;101127.97;;;13.89;98.91
69784;BME280;57054;51.978;4.498;2022-10-22T08:12:05;101126.19;;;13.89;99.10
69784;BME280;57054;51.978;4.498;2022-10-22T08:14:30;101130.53;;;13.90;99.09
69784;BME280;57054;51.978;4.498;2022-10-22T08:16:55;101139.28;;;13.91;99.22
69784;BME280;57054;51.978;4.498;2022-10-22T08:19:20;101141.91;;;13.91;99.39
69784;BME280;57054;51.978;4.498;2022-10-22T08:21:46;101141.84;;;13.92;99.56
69784;BME280;57054;51.978;4.498;2022-10-22T08:24:11;101147.94;;;13.93;99.30
69784;BME280;57054;51.978;4.498;2022-10-22T08:26:37;101147.03;;;13.94;99.33
69784;BME280;57054;51.978;4.498;2022-10-22T08:29:02;101150.50;;;13.94;98.96
69784;BME280;57054;51.978;4.498;2022-10-22T08:31:27;101146.09;;;13.95;98.91
69784;BME280;57054;51.978;4.498;2022-10-22T08:33:52;101149.59;;;13.95;99.13
69784;BME280;57054;51.978;4.498;2022-10-22T08:36:18;101152.22;;;13.95;98.64
69784;BME280;57054;51.978;4.498;2022-10-22T08:38:43;101164.44;;;13.96;98.80
69784;BME280;57054;51.978;4.498;2022-10-22T08:41:13;101167.00;;;13.98;98.86
69784;BME280;57054;51.978;4.498;2022-10-22T08:50:58;101181.72;;;14.02;99.11
69784;BME280;57054;51.978;4.498;2022-10-22T08:56:07;101193.03;;;14.04;98.92
69784;BME280;57054;51.978;4.498;2022-10-22T08:58:41;101182.47;;;14.04;98.66
69784;BME280;57054;51.978;4.498;2022-10-22T09:01:14;101192.09;;;14.05;98.87
69784;BME280;57054;51.978;4.498;2022-10-22T09:08:38;101199.94;;;14.07;99.18
69784;BME280;57054;51.978;4.498;2022-10-22T09:13:32;101209.44;;;14.09;99.69
69784;BME280;57054;51.978;4.498;2022-10-22T09:15:59;101212.09;;;14.09;99.78
69784;BME280;57054;51.978;4.498;2022-10-22T09:18:29;101221.69;;;14.10;99.37
69784;BME280;57054;51.978;4.498;2022-10-22T09:20:58;101219.84;;;14.12;99.38
69784;BME280;57054;51.978;4.498;2022-10-22T09:26:31;101222.34;;;14.15;99.74
69784;BME280;57054;51.978;4.498;2022-10-22T09:28:58;101222.22;;;14.17;99.61
69784;BME280;57054;51.978;4.498;2022-10-22T09:31:25;101221.31;;;14.18;99.52
69784;BME280;57054;51.978;4.498;2022-10-22T09:33:50;101227.34;;;14.20;99.63
69784;BME280;57054;51.978;4.498;2022-10-22T09:36:17;101233.41;;;14.22;99.71
69784;BME280;57054;51.978;4.498;2022-10-22T09:38:46;101228.06;;;14.24;99.79
69784;BME280;57054;51.978;4.498;2022-10-22T09:41:11;101233.25;;;14.25;99.76
69784;BME280;57054;51.978;4.498;2022-10-22T09:43:37;101239.28;;;14.27;100.00
69784;BME280;57054;51.978;4.498;2022-10-22T09:46:04;101246.22;;;14.30;100.00
69784;BME280;57054;51.978;4.498;2022-10-22T09:48:37;101246.09;;;14.31;99.54
69784;BME280;57054;51.978;4.498;2022-10-22T09:51:04;101254.78;;;14.33;100.00
69784;BME280;57054;51.978;4.498;2022-10-22T09:53:37;101243.34;;;14.34;99.74
69784;BME280;57054;51.978;4.498;2022-10-22T09:58:48;101259.91;;;14.36;99.26
69784;BME280;57054;51.978;4.498;2022-10-22T10:01:17;101256.38;;;14.37;99.26
69784;BME280;57054;51.978;4.498;2022-10-22T10:03:42;101258.03;;;14.38;99.01
69784;BME280;57054;51.978;4.498;2022-10-22T10:06:07;101255.41;;;14.38;99.14
69784;BME280;57054;51.978;4.498;2022-10-22T10:08:33;101266.72;;;14.40;99.21
69784;BME280;57054;51.978;4.498;2022-10-22T10:10:59;101265.81;;;14.42;99.07
69784;BME280;57054;51.978;4.498;2022-10-22T10:15:53;101276.13;;;14.46;99.27
69784;BME280;57054;51.978;4.498;2022-10-22T10:20:56;101273.31;;;14.49;99.11
69784;BME280;57054;51.978;4.498;2022-10-22T10:26:18;101284.63;;;14.51;99.21
69784;BME280;57054;51.978;4.498;2022-10-22T10:28:51;101297.75;;;14.53;98.93
69784;BME280;57054;51.978;4.498;2022-10-22T10:36:11;101314.25;;;14.56;98.46
69784;BME280;57054;51.978;4.498;2022-10-22T10:49:25;101318.56;;;14.59;96.90
69784;BME280;57054;51.978;4.498;2022-10-22T10:55:07;101321.97;;;14.61;96.98
69784;BME280;57054;51.978;4.498;2022-10-22T11:05:36;101340.13;;;14.67;96.06
69784;BME280;57054;51.978;4.498;2022-10-22T11:08:13;101327.78;;;14.68;95.60
69784;BME280;57054;51.978;4.498;2022-10-22T11:10:45;101322.44;;;14.69;95.54
69784;BME280;57054;51.978;4.498;2022-10-22T11:13:21;101330.41;;;14.68;94.80
69784;BME280;57054;51.978;4.498;2022-10-22T11:15:53;101327.78;;;14.68;94.46
69784;BME280;57054;51.978;4.498;2022-10-22T11:21:28;101338.25;;;14.69;94.95
69784;BME280;57054;51.978;4.498;2022-10-22T11:23:59;101330.34;;;14.69;94.89
69784;BME280;57054;51.978;4.498;2022-10-22T11:28:55;101337.41;;;14.69;95.41
69784;BME280;57054;51.978;4.498;2022-10-22T11:31:23;101346.16;;;14.69;94.80
69784;BME280;57054;51.978;4.498;2022-10-22T11:33:53;101340.88;;;14.69;93.75
69784;BME280;57054;51.978;4.498;2022-10-22T11:36:22;101337.34;;;14.70;93.68
69784;BME280;57054;51.978;4.498;2022-10-22T11:38:49;101345.16;;;14.72;94.20
69784;BME280;57054;51.978;4.498;2022-10-22T11:41:16;101341.59;;;14.73;94.80
69784;BME280;57054;51.978;4.498;2022-10-22T11:44:04;101342.38;;;14.75;94.29
69784;BME280;57054;51.978;4.498;2022-10-22T11:46:28;101344.00;;;14.77;94.37
69784;BME280;57054;51.978;4.498;2022-10-22T11:49:02;101344.78;;;14.80;93.83
69784;BME280;57054;51.978;4.498;2022-10-22T11:51:32;101349.03;;;14.82;94.42
69784;BME280;57054;51.978;4.498;2022-10-22T11:54:02;101352.44;;;14.84;94.02
69784;BME280;57054;51.978;4.498;2022-10-22T11:56:46;101358.53;;;14.86;93.76
69784;BME280;57054;51.978;4.498;2022-10-22T11:59:29;101358.34;;;14.89;94.33
69784;BME280;57054;51.978;4.498;2022-10-22T12:01:57;101353.84;;;14.91;94.21
69784;BME280;57054;51.978;4.498;2022-10-22T12:04:23;101351.97;;;14.93;94.74
69784;BME280;57054;51.978;4.498;2022-10-22T12:07:04;101347.50;;;14.95;93.98
69784;BME280;57054;51.978;4.498;2022-10-22T12:09:48;101352.59;;;14.98;94.10
69784;BME280;57054;51.978;4.498;2022-10-22T12:12:18;101355.16;;;15.00;94.41
69784;BME280;57054;51.978;4.498;2022-10-22T12:14:51;101358.50;;;15.04;94.83
69784;BME280;57054;51.978;4.498;2022-10-22T12:17:17;101364.53;;;15.06;94.99
69784;BME280;57054;51.978;4.498;2022-10-22T12:19:44;101363.69;;;15.05;94.69
69784;BME280;57054;51.978;4.498;2022-10-22T12:22:12;101362.78;;;15.06;94.08
69784;BME280;57054;51.978;4.498;2022-10-22T12:24:39;101361.00;;;15.07;94.55
69784;BME280;57054;51.978;4.498;2022-10-22T12:27:21;101359.19;;;15.07;93.61
69784;BME280;57054;51.978;4.498;2022-10-22T12:29:47;101362.59;;;15.09;94.03
69784;BME280;57054;51.978;4.498;2022-10-22T12:32:13;101362.53;;;15.11;93.89
69784;BME280;57054;51.978;4.498;2022-10-22T12:34:46;101361.63;;;15.12;94.17
69784;BME280;57054;51.978;4.498;2022-10-22T12:37:12;101353.69;;;15.12;93.67
69784;BME280;57054;51.978;4.498;2022-10-22T12:39:38;101356.25;;;15.13;93.87
69784;BME280;57054;51.978;4.498;2022-10-22T12:42:03;101364.00;;;15.16;94.65
69784;BME280;57054;51.978;4.498;2022-10-22T12:44:29;101363.16;;;15.16;93.21
69784;BME280;57054;51.978;4.498;2022-10-22T12:46:56;101359.66;;;15.15;91.83
69784;BME280;57054;51.978;4.498;2022-10-22T12:49:24;101356.00;;;15.18;92.35
69784;BME280;57054;51.978;4.498;2022-10-22T12:51:50;101353.38;;;15.18;91.33
69784;BME280;57054;51.978;4.498;2022-10-22T12:54:25;101356.78;;;15.20;92.27
69784;BME280;57054;51.978;4.498;2022-10-22T12:56:51;101361.97;;;15.22;92.42
69784;BME280;57054;51.978;4.498;2022-10-22T12:59:28;101351.44;;;15.22;91.99
69784;BME280;57054;51.978;4.498;2022-10-22T13:01:56;101356.56;;;15.25;93.40
69784;BME280;57054;51.978;4.498;2022-10-22T13:06:51;101368.66;;;15.29;93.40
69784;BME280;57054;51.978;4.498;2022-10-22T13:09:22;101366.84;;;15.29;91.91
69784;BME280;57054;51.978;4.498;2022-10-22T13:11:48;101362.44;;;15.30;91.96
69784;BME280;57054;51.978;4.498;2022-10-22T13:14:25;101363.22;;;15.32;92.31
69784;BME280;57054;51.978;4.498;2022-10-22T13:17:10;101357.16;;;15.30;89.87
69784;BME280;57054;51.978;4.498;2022-10-22T13:19:53;101364.00;;;15.34;90.49
69784;BME280;57054;51.978;4.498;2022-10-22T13:22:30;101350.78;;;15.34;89.97
69784;BME280;57054;51.978;4.498;2022-10-22T13:24:56;101355.88;;;15.37;92.56
69784;BME280;57054;51.978;4.498;2022-10-22T13:27:23;101355.81;;;15.39;92.21
69784;BME280;57054;51.978;4.498;2022-10-22T13:29:49;101353.94;;;15.41;92.15
69784;BME280;57054;51.978;4.498;2022-10-22T13:32:28;101345.09;;;15.42;91.73
69784;BME280;57054;51.978;4.498;2022-10-22T13:34:55;101352.88;;;15.45;92.89
69784;BME280;57054;51.978;4.498;2022-10-22T13:37:20;101350.16;;;15.46;92.67
69784;BME280;57054;51.978;4.498;2022-10-22T13:39:46;101354.47;;;15.47;91.92
69784;BME280;57054;51.978;4.498;2022-10-22T13:42:11;101350.84;;;15.50;91.36
69784;BME280;57054;51.978;4.498;2022-10-22T13:44:36;101355.09;;;15.52;93.39
69784;BME280;57054;51.978;4.498;2022-10-22T13:47:02;101367.38;;;15.53;92.57
69784;BME280;57054;51.978;4.498;2022-10-22T13:49:27;101363.69;;;15.56;93.35
69784;BME280;57054;51.978;4.498;2022-10-22T13:51:52;101371.53;;;15.58;94.66
69784;BME280;57054;51.978;4.498;2022-10-22T13:54:18;101366.25;;;15.58;94.82
69784;BME280;57054;51.978;4.498;2022-10-22T13:56:45;101372.53;;;15.55;92.69
69784;BME280;57054;51.978;4.498;2022-10-22T13:59:10;101370.78;;;15.55;90.79
69784;BME280;57054;51.978;4.498;2022-10-22T14:01:36;101377.94;;;15.53;89.07
69784;BME280;57054;51.978;4.498;2022-10-22T14:04:02;101383.09;;;15.55;90.87
69784;BME280;57054;51.978;4.498;2022-10-22T14:06:29;101380.38;;;15.57;91.57
69784;BME280;57054;51.978;4.498;2022-10-22T14:09:02;101387.47;;;15.56;89.96
69784;BME280;57054;51.978;4.498;2022-10-22T14:11:28;101383.09;;;15.55;89.49
69784;BME280;57054;51.978;4.498;2022-10-22T14:13:55;101388.50;;;15.53;89.43
69784;BME280;57054;51.978;4.498;2022-10-22T14:16:22;101389.41;;;15.52;88.91
69784;BME280;57054;51.978;4.498;2022-10-22T14:18:47;101388.63;;;15.50;87.93
69784;BME280;57054;51.978;4.498;2022-10-22T14:21:13;101389.41;;;15.52;90.56